createdAt,value
2023-04-12T00:00:11.193Z,7.98
2023-04-12T00:02:39.431Z,8.06
2023-04-12T00:05:06.382Z,8.16
2023-04-12T00:07:33.129Z,8.11
2023-04-12T00:09:59.649Z,8.12
2023-04-12T00:12:26.014Z,8.22
2023-04-12T00:14:52.468Z,8.10
2023-04-12T00:17:19.726Z,8.16
2023-04-12T00:19:47.522Z,8.00
2023-04-12T00:22:14.643Z,7.96
2023-04-12T00:24:41.763Z,7.94
2023-04-12T00:27:08.647Z,7.87
2023-04-12T00:29:35.437Z,7.84
2023-04-12T00:32:03.681Z,7.81
2023-04-12T00:34:31.224Z,7.87
2023-04-12T00:36:57.603Z,7.79
2023-04-12T00:39:23.993Z,7.80
2023-04-12T00:41:51.132Z,7.74
2023-04-12T00:44:18.255Z,7.81
2023-04-12T00:46:48.440Z,7.82
2023-04-12T00:49:15.492Z,7.75
2023-04-12T00:51:42.735Z,7.69
2023-04-12T00:54:09.239Z,7.71
2023-04-12T00:56:36.814Z,7.59
2023-04-12T00:59:03.487Z,7.49
2023-04-12T01:01:32.256Z,7.57
2023-04-12T01:04:01.340Z,7.60
2023-04-12T01:06:41.557Z,7.55
2023-04-12T01:09:31.355Z,7.53
2023-04-12T01:12:09.632Z,7.51
2023-04-12T01:14:51.129Z,7.42
2023-04-12T01:17:21.641Z,7.39
2023-04-12T01:20:13.087Z,7.42
2023-04-12T01:22:42.482Z,7.39
2023-04-12T01:25:23.803Z,7.42
2023-04-12T01:27:53.270Z,7.33
2023-04-12T01:30:21.302Z,7.34
2023-04-12T01:32:53.362Z,7.34
2023-04-12T01:35:22.747Z,7.25
2023-04-12T01:37:49.623Z,7.24
2023-04-12T01:40:18.386Z,7.27
2023-04-12T01:42:45.040Z,7.24
2023-04-12T01:45:12.115Z,7.29
2023-04-12T01:47:39.241Z,7.26
2023-04-12T01:50:19.260Z,7.19
2023-04-12T01:52:52.706Z,7.20
2023-04-12T01:55:22.316Z,7.19
2023-04-12T01:57:50.523Z,7.25
2023-04-12T02:00:17.779Z,7.24
2023-04-12T02:02:44.953Z,7.30
2023-04-12T02:05:12.365Z,7.35
2023-04-12T02:07:40.848Z,7.33
2023-04-12T02:10:07.599Z,7.31
2023-04-12T02:12:33.933Z,7.28
2023-04-12T02:15:00.293Z,7.34
2023-04-12T02:17:27.053Z,7.37
2023-04-12T02:19:53.490Z,7.24
2023-04-12T02:22:20.231Z,7.24
2023-04-12T02:24:47.697Z,7.20
2023-04-12T02:27:14.197Z,7.12
2023-04-12T02:29:41.229Z,7.14
2023-04-12T02:32:07.932Z,7.15
2023-04-12T02:34:36.609Z,7.08
2023-04-12T02:37:03.941Z,7.18
2023-04-12T02:39:32.177Z,7.16
2023-04-12T02:41:59.081Z,7.12
2023-04-12T02:44:25.934Z,7.18
2023-04-12T02:46:52.378Z,7.04
2023-04-12T02:49:18.806Z,7.07
2023-04-12T02:51:45.611Z,7.08
2023-04-12T02:54:12.491Z,7.02
2023-04-12T02:56:38.980Z,7.06
2023-04-12T02:59:07.016Z,7.02
2023-04-12T03:01:33.818Z,7.07
2023-04-12T03:04:02.126Z,7.04
2023-04-12T03:06:30.356Z,6.96
2023-04-12T03:08:58.027Z,6.91
2023-04-12T03:11:24.718Z,6.93
2023-04-12T03:13:52.552Z,6.84
2023-04-12T03:16:25.263Z,6.92
2023-04-12T03:18:52.618Z,6.96
2023-04-12T03:21:19.129Z,6.93
2023-04-12T03:23:45.993Z,6.95
2023-04-12T03:26:12.429Z,6.88
2023-04-12T03:28:39.266Z,6.82
2023-04-12T03:31:06.089Z,6.82
2023-04-12T03:33:32.538Z,6.75
2023-04-12T03:35:59.042Z,6.80
2023-04-12T03:38:25.660Z,6.74
2023-04-12T03:40:52.369Z,6.79
2023-04-12T03:43:18.751Z,6.80
2023-04-12T03:45:45.255Z,6.89
2023-04-12T03:48:12.021Z,6.73
2023-04-12T03:50:44.175Z,6.81
2023-04-12T03:53:11.770Z,6.76
2023-04-12T03:55:38.375Z,6.82
2023-04-12T03:58:05.116Z,6.84
2023-04-12T04:00:32.170Z,6.84
2023-04-12T04:03:03.197Z,6.84
2023-04-12T04:05:30.883Z,6.88
2023-04-12T04:08:01.163Z,6.82
2023-04-12T04:10:31.119Z,6.85
2023-04-12T04:12:57.786Z,6.81
2023-04-12T04:15:27.781Z,6.78
2023-04-12T04:17:54.282Z,6.81
2023-04-12T04:20:20.922Z,6.84
2023-04-12T04:22:53.328Z,6.85
2023-04-12T04:25:20.022Z,6.85
2023-04-12T04:27:46.480Z,6.81
2023-04-12T04:30:15.571Z,6.76
2023-04-12T04:32:43.101Z,6.79
2023-04-12T04:35:09.655Z,6.75
2023-04-12T04:37:37.042Z,6.72
2023-04-12T04:40:09.572Z,6.84
2023-04-12T04:42:38.317Z,6.69
2023-04-12T04:45:13.246Z,6.68
2023-04-12T04:47:40.332Z,6.63
2023-04-12T04:50:07.537Z,6.70
2023-04-12T04:52:34.239Z,6.63
2023-04-12T04:55:00.799Z,6.73
2023-04-12T04:57:27.240Z,6.70
2023-04-12T04:59:53.654Z,6.70
2023-04-12T05:02:21.804Z,6.65
2023-04-12T05:04:48.240Z,6.74
2023-04-12T05:07:14.994Z,6.81
2023-04-12T05:09:41.802Z,6.75
2023-04-12T05:12:08.836Z,6.79
2023-04-12T05:14:46.700Z,6.82
2023-04-12T05:17:16.427Z,6.78
2023-04-12T05:19:44.757Z,6.79
2023-04-12T05:22:11.546Z,6.76
2023-04-12T05:24:38.028Z,6.80
2023-04-12T05:27:04.469Z,6.82
2023-04-12T05:29:31.339Z,6.74
2023-04-12T05:31:59.209Z,6.73
2023-04-12T05:34:25.819Z,6.85
2023-04-12T05:36:52.212Z,6.84
2023-04-12T05:39:20.596Z,6.84
2023-04-12T05:41:47.233Z,6.86
2023-04-12T05:44:14.017Z,6.84
2023-04-12T05:46:40.518Z,6.88
2023-04-12T05:49:06.956Z,6.89
2023-04-12T05:51:40.986Z,6.92
2023-04-12T05:54:07.959Z,6.86
2023-04-12T05:56:34.439Z,6.92
2023-04-12T05:59:01.454Z,6.94
2023-04-12T06:01:34.964Z,7.01
2023-04-12T06:04:06.514Z,6.94
2023-04-12T06:06:32.997Z,6.94
2023-04-12T06:09:00.640Z,6.92
2023-04-12T06:11:27.742Z,7.02
2023-04-12T06:13:54.382Z,7.06
2023-04-12T06:16:21.118Z,7.03
2023-04-12T06:18:47.820Z,7.05
2023-04-12T06:21:14.243Z,7.08
2023-04-12T06:23:40.945Z,7.04
2023-04-12T06:26:07.480Z,7.11
2023-04-12T06:28:33.842Z,7.14
2023-04-12T06:31:01.417Z,7.20
2023-04-12T06:33:27.818Z,7.16
2023-04-12T06:35:54.615Z,7.20
2023-04-12T06:38:21.211Z,7.25
2023-04-12T06:40:48.167Z,7.21
2023-04-12T06:43:19.068Z,7.25
2023-04-12T06:45:46.306Z,7.26
2023-04-12T06:48:12.684Z,7.37
2023-04-12T06:50:40.200Z,7.39
2023-04-12T06:53:06.638Z,7.40
2023-04-12T06:55:33.081Z,7.41
2023-04-12T06:57:59.875Z,7.48
2023-04-12T07:00:26.737Z,7.46
2023-04-12T07:02:53.160Z,7.45
2023-04-12T07:05:20.139Z,7.54
2023-04-12T07:07:46.660Z,7.56
2023-04-12T07:10:13.212Z,7.51
2023-04-12T07:12:39.772Z,7.51
2023-04-12T07:15:06.537Z,7.43
2023-04-12T07:17:32.970Z,7.45
2023-04-12T07:19:59.845Z,7.58
2023-04-12T07:22:26.406Z,7.55
2023-04-12T07:24:53.397Z,7.61
2023-04-12T07:27:19.864Z,7.66
2023-04-12T07:29:46.523Z,7.65
2023-04-12T07:32:13.247Z,7.69
2023-04-12T07:34:39.700Z,7.67
2023-04-12T07:37:06.415Z,7.75
2023-04-12T07:39:34.829Z,7.85
2023-04-12T07:42:01.593Z,7.90
2023-04-12T07:44:28.130Z,7.96
2023-04-12T07:46:54.754Z,7.94
2023-04-12T07:49:21.519Z,7.99
2023-04-12T07:51:48.279Z,7.99
2023-04-12T07:54:15.311Z,8.05
2023-04-12T07:56:42.063Z,8.15
2023-04-12T07:59:08.476Z,8.24
2023-04-12T08:01:34.984Z,8.24
2023-04-12T08:04:02.595Z,8.25
2023-04-12T08:06:31.725Z,8.27
2023-04-12T08:08:59.773Z,8.43
2023-04-12T08:11:26.426Z,8.40
2023-04-12T08:13:53.341Z,8.39
2023-04-12T08:16:20.413Z,8.49
2023-04-12T08:18:46.858Z,8.49
2023-04-12T08:21:13.297Z,8.51
2023-04-12T08:23:40.056Z,8.60
2023-04-12T08:26:06.570Z,8.70
2023-04-12T08:28:33.881Z,8.75
2023-04-12T08:31:01.280Z,8.83
2023-04-12T08:33:27.791Z,8.78
2023-04-12T08:35:54.502Z,8.78
2023-04-12T08:38:30.600Z,8.78
2023-04-12T08:41:05.695Z,8.80
2023-04-12T08:43:34.218Z,8.79
2023-04-12T08:46:01.473Z,8.79
2023-04-12T08:48:29.570Z,8.87
2023-04-12T08:51:01.029Z,9.01
2023-04-12T08:53:27.465Z,8.98
2023-04-12T08:55:54.468Z,9.04
2023-04-12T08:58:22.288Z,9.07
2023-04-12T09:00:48.759Z,9.12
2023-04-12T09:03:15.467Z,9.16
2023-04-12T09:05:42.054Z,9.26
2023-04-12T09:08:08.908Z,9.30
2023-04-12T09:10:37.851Z,9.25
2023-04-12T09:13:05.780Z,9.30
2023-04-12T09:15:33.492Z,9.36
2023-04-12T09:18:11.300Z,9.37
2023-04-12T09:20:38.953Z,9.33
2023-04-12T09:23:26.439Z,9.33
2023-04-12T09:25:53.625Z,9.24
2023-04-12T09:28:27.985Z,9.37
2023-04-12T09:30:56.525Z,9.55
2023-04-12T09:33:33.410Z,9.52
2023-04-12T09:36:02.224Z,9.59
2023-04-12T09:38:30.417Z,9.66
2023-04-12T09:40:57.512Z,9.71
2023-04-12T09:43:39.682Z,9.77
2023-04-12T09:46:13.483Z,9.78
2023-04-12T09:48:41.136Z,9.87
2023-04-12T09:51:08.165Z,9.95
2023-04-12T09:53:41.319Z,9.95
2023-04-12T09:56:10.633Z,10.00
2023-04-12T09:58:39.110Z,10.05
2023-04-12T10:01:10.253Z,10.01
2023-04-12T10:03:37.087Z,10.08
2023-04-12T10:06:05.574Z,10.00
2023-04-12T10:08:32.658Z,9.93
2023-04-12T10:11:01.077Z,9.94
2023-04-12T10:13:29.521Z,10.08
2023-04-12T10:15:56.216Z,10.09
2023-04-12T10:18:23.823Z,10.16
2023-04-12T10:20:51.101Z,10.24
2023-04-12T10:23:18.388Z,10.35
2023-04-12T10:25:48.185Z,10.16
2023-04-12T10:28:17.110Z,10.38
2023-04-12T10:30:43.583Z,10.45
2023-04-12T10:33:10.354Z,10.70
2023-04-12T10:35:54.959Z,11.04
2023-04-12T10:38:24.855Z,11.38
2023-04-12T10:41:20.126Z,11.44
2023-04-12T10:43:48.086Z,11.61
2023-04-12T10:46:39.990Z,11.69
2023-04-12T10:49:11.516Z,11.69
2023-04-12T10:51:38.102Z,11.53
2023-04-12T10:54:07.930Z,11.61
2023-04-12T10:56:35.797Z,11.71
2023-04-12T10:59:09.424Z,11.78
2023-04-12T11:01:38.973Z,11.97
2023-04-12T11:04:17.284Z,12.07
2023-04-12T11:06:49.423Z,12.26
2023-04-12T11:09:34.264Z,12.54
2023-04-12T11:12:03.989Z,12.73
2023-04-12T11:14:36.027Z,12.92
2023-04-12T11:17:05.605Z,12.84
2023-04-12T11:19:39.805Z,12.97
2023-04-12T11:22:08.517Z,12.96
2023-04-12T11:24:44.848Z,13.11
2023-04-12T11:27:12.267Z,13.24
2023-04-12T11:29:38.903Z,13.23
2023-04-12T11:32:07.641Z,13.33
2023-04-12T11:34:36.212Z,13.37
2023-04-12T11:37:10.305Z,13.43
2023-04-12T11:39:39.534Z,13.34
2023-04-12T11:42:08.613Z,13.44
2023-04-12T11:44:52.446Z,13.52
2023-04-12T11:47:24.230Z,13.30
2023-04-12T11:49:56.040Z,13.10
2023-04-12T11:52:31.210Z,13.09
2023-04-12T11:55:02.437Z,13.00
2023-04-12T11:57:29.137Z,12.77
2023-04-12T11:59:57.719Z,11.57
2023-04-12T12:02:24.836Z,10.98
2023-04-12T12:04:53.588Z,10.73
2023-04-12T12:07:21.668Z,10.55
2023-04-12T12:09:49.870Z,10.50
2023-04-12T12:12:17.287Z,10.53
2023-04-12T12:14:45.522Z,10.60
2023-04-12T12:17:14.622Z,10.45
2023-04-12T12:19:43.490Z,10.39
2023-04-12T12:22:13.965Z,10.41
2023-04-12T12:24:57.638Z,10.60
2023-04-12T12:27:30.256Z,10.71
2023-04-12T12:30:01.481Z,10.59
2023-04-12T12:32:33.288Z,10.83
2023-04-12T12:34:59.735Z,11.12
2023-04-12T12:37:27.842Z,11.26
2023-04-12T12:40:21.453Z,11.43
2023-04-12T12:42:55.471Z,11.40
2023-04-12T12:45:27.538Z,11.59
2023-04-12T12:47:58.438Z,12.22
2023-04-12T12:50:29.551Z,12.34
2023-04-12T12:52:56.861Z,11.92
2023-04-12T12:55:24.332Z,11.60
2023-04-12T12:58:07.399Z,11.38
2023-04-12T13:00:35.336Z,11.38
2023-04-12T13:03:02.256Z,11.42
2023-04-12T13:05:29.352Z,11.57
2023-04-12T13:07:55.974Z,11.73
2023-04-12T13:10:23.616Z,11.83
2023-04-12T13:12:50.051Z,11.99
2023-04-12T13:17:45.856Z,11.88
2023-04-12T13:20:12.794Z,11.85
2023-04-12T13:22:39.224Z,11.96
2023-04-12T13:25:07.340Z,12.08
2023-04-12T13:27:33.736Z,12.15
2023-04-12T13:30:00.635Z,12.08
2023-04-12T13:32:27.337Z,12.21
2023-04-12T13:34:54.228Z,11.98
2023-04-12T13:37:20.726Z,11.86
2023-04-12T13:39:47.239Z,11.62
2023-04-12T13:42:13.604Z,11.61
2023-04-12T13:44:40.212Z,11.55
2023-04-12T13:47:06.593Z,11.34
2023-04-12T13:49:33.041Z,11.33
2023-04-12T13:51:59.477Z,11.31
2023-04-12T13:54:26.114Z,11.48
2023-04-12T13:56:52.500Z,11.42
2023-04-12T13:59:19.304Z,11.59
2023-04-12T14:01:46.117Z,12.17
2023-04-12T14:04:12.818Z,12.57
2023-04-12T14:06:39.301Z,12.68
2023-04-12T14:09:05.791Z,12.64
2023-04-12T14:11:46.202Z,12.64
2023-04-12T14:14:14.802Z,12.52
2023-04-12T14:16:43.008Z,12.24
2023-04-12T14:19:09.425Z,12.09
2023-04-12T14:21:36.448Z,11.87
2023-04-12T14:24:03.364Z,11.77
2023-04-12T14:26:29.793Z,11.74
2023-04-12T14:28:56.359Z,11.89
2023-04-12T14:31:23.120Z,12.17
2023-04-12T14:33:49.547Z,12.61
2023-04-12T14:36:16.089Z,13.08
2023-04-12T14:38:42.519Z,13.03
2023-04-12T14:41:09.709Z,13.35
2023-04-12T14:43:36.292Z,13.59
2023-04-12T14:46:02.711Z,13.85
2023-04-12T14:48:29.246Z,13.71
2023-04-12T14:50:55.644Z,13.50
2023-04-12T14:53:22.983Z,12.90
2023-04-12T14:55:49.446Z,12.57
2023-04-12T14:58:16.255Z,12.81
2023-04-12T15:00:42.722Z,13.24
2023-04-12T15:03:10.491Z,13.47
2023-04-12T15:05:37.168Z,13.32
2023-04-12T15:08:05.729Z,13.06
2023-04-12T15:10:32.148Z,12.82
2023-04-12T15:12:58.727Z,12.55
2023-04-12T15:15:25.121Z,12.51
2023-04-12T15:17:51.896Z,12.43
2023-04-12T15:20:18.453Z,12.58
2023-04-12T15:22:45.120Z,12.99
2023-04-12T15:25:12.143Z,13.48
2023-04-12T15:27:38.565Z,13.52
2023-04-12T15:30:09.867Z,13.49
2023-04-12T15:32:42.358Z,13.73
2023-04-12T15:35:25.338Z,13.69
2023-04-12T15:37:54.929Z,13.28
2023-04-12T15:40:22.683Z,12.95
2023-04-12T15:42:49.307Z,12.62
2023-04-12T15:45:16.033Z,12.37
2023-04-12T15:47:42.860Z,12.21
2023-04-12T15:50:09.621Z,12.07
2023-04-12T15:52:36.328Z,11.81
2023-04-12T15:55:04.986Z,11.38
2023-04-12T15:57:31.556Z,10.53
2023-04-12T15:59:59.352Z,10.13
2023-04-12T16:02:26.458Z,9.88
2023-04-12T16:04:55.809Z,9.70
2023-04-12T16:07:22.582Z,9.58
2023-04-12T16:09:49.048Z,9.25
2023-04-12T16:12:15.559Z,9.01
2023-04-12T16:14:42.219Z,9.03
2023-04-12T16:17:10.801Z,9.01
2023-04-12T16:19:37.482Z,9.09
2023-04-12T16:22:04.350Z,8.92
2023-04-12T16:24:30.791Z,8.89
2023-04-12T16:26:57.660Z,8.92
2023-04-12T16:29:24.596Z,8.94
2023-04-12T16:31:52.363Z,8.97
2023-04-12T16:34:21.832Z,8.99
2023-04-12T16:36:49.013Z,8.90
2023-04-12T16:39:16.517Z,8.90
2023-04-12T16:41:44.126Z,8.86
2023-04-12T16:44:11.051Z,8.88
2023-04-12T16:46:37.729Z,8.77
2023-04-12T16:49:04.268Z,8.82
2023-04-12T16:51:37.387Z,9.08
2023-04-12T16:54:04.465Z,9.05
2023-04-12T16:56:31.739Z,9.05
2023-04-12T16:59:01.336Z,8.88
2023-04-12T17:01:28.074Z,9.08
2023-04-12T17:03:54.623Z,9.09
2023-04-12T17:06:21.521Z,8.95
2023-04-12T17:08:48.885Z,8.84
2023-04-12T17:11:15.421Z,8.70
2023-04-12T17:13:42.248Z,8.58
2023-04-12T17:16:09.910Z,8.58
2023-04-12T17:18:39.750Z,8.36
2023-04-12T17:21:06.639Z,8.36
2023-04-12T17:23:33.048Z,8.22
2023-04-12T17:25:59.401Z,8.06
2023-04-12T17:28:25.812Z,8.02
2023-04-12T17:30:52.253Z,7.95
2023-04-12T17:33:18.741Z,7.93
2023-04-12T17:35:47.357Z,7.86
2023-04-12T17:38:13.865Z,7.93
2023-04-12T17:40:40.660Z,7.91
2023-04-12T17:43:07.204Z,7.78
2023-04-12T17:45:33.911Z,7.69
2023-04-12T17:48:00.742Z,7.61
2023-04-12T17:50:27.322Z,7.63
2023-04-12T17:52:55.341Z,7.50
2023-04-12T17:55:24.341Z,7.38
2023-04-12T17:57:51.161Z,7.28
2023-04-12T18:00:18.851Z,7.46
2023-04-12T18:02:46.552Z,7.21
2023-04-12T18:05:13.777Z,7.13
2023-04-12T18:07:42.456Z,7.10
2023-04-12T18:10:10.171Z,7.05
2023-04-12T18:12:38.480Z,6.92
2023-04-12T18:15:08.545Z,6.81
2023-04-12T18:17:35.032Z,6.78
2023-04-12T18:20:02.839Z,6.78
2023-04-12T18:22:29.618Z,6.71
2023-04-12T18:24:56.091Z,6.66
2023-04-12T18:27:22.699Z,6.64
2023-04-12T18:29:49.170Z,6.55
2023-04-12T18:32:16.097Z,6.52
2023-04-12T18:34:42.472Z,6.51
2023-04-12T18:37:08.890Z,6.62
2023-04-12T18:39:35.770Z,6.47
2023-04-12T18:42:02.693Z,6.48
2023-04-12T18:44:30.439Z,6.50
2023-04-12T18:46:56.965Z,6.49
2023-04-12T18:49:24.053Z,6.43
2023-04-12T18:51:50.709Z,6.44
2023-04-12T18:54:17.494Z,6.38
2023-04-12T18:56:43.962Z,6.35
2023-04-12T18:59:17.314Z,6.30
2023-04-12T19:01:45.048Z,6.22
2023-04-12T19:04:12.043Z,6.15
2023-04-12T19:06:38.548Z,6.08
2023-04-12T19:09:06.442Z,5.94
2023-04-12T19:11:34.918Z,5.92
2023-04-12T19:14:03.325Z,5.85
2023-04-12T19:16:29.829Z,5.76
2023-04-12T19:19:00.144Z,5.70
2023-04-12T19:21:29.096Z,5.62
2023-04-12T19:23:56.146Z,5.67
2023-04-12T19:26:23.262Z,5.58
2023-04-12T19:28:52.337Z,5.59
2023-04-12T19:31:18.985Z,5.69
2023-04-12T19:33:45.741Z,5.54
2023-04-12T19:36:12.183Z,5.59
2023-04-12T19:38:41.672Z,5.42
2023-04-12T19:41:08.099Z,5.36
2023-04-12T19:43:34.695Z,5.35
2023-04-12T19:46:01.476Z,5.35
2023-04-12T19:48:29.581Z,5.32
2023-04-12T19:50:57.008Z,5.37
2023-04-12T19:53:24.237Z,5.34
2023-04-12T19:55:56.943Z,5.31
2023-04-12T19:58:23.688Z,5.30
2023-04-12T20:00:54.678Z,5.36
2023-04-12T20:03:22.073Z,5.28
2023-04-12T20:05:48.644Z,5.34
2023-04-12T20:08:15.818Z,5.30
2023-04-12T20:10:42.796Z,5.35
2023-04-12T20:13:14.908Z,5.29
2023-04-12T20:15:42.741Z,5.32
2023-04-12T20:18:11.201Z,5.42
2023-04-12T20:20:38.242Z,5.43
2023-04-12T20:23:04.724Z,5.40
2023-04-12T20:25:35.463Z,5.44
2023-04-12T20:28:04.337Z,5.48
2023-04-12T20:30:31.025Z,5.51
2023-04-12T20:32:58.866Z,5.66
2023-04-12T20:35:25.628Z,5.74
2023-04-12T20:37:53.303Z,5.71
2023-04-12T20:40:20.649Z,5.77
2023-04-12T20:42:47.367Z,5.68
2023-04-12T20:45:14.319Z,5.71
2023-04-12T20:47:41.411Z,5.71
2023-04-12T20:50:08.222Z,5.61
2023-04-12T20:52:35.356Z,5.67
2023-04-12T20:55:02.279Z,5.60
2023-04-12T20:57:29.043Z,5.59
2023-04-12T20:59:55.607Z,5.64
2023-04-12T21:02:22.357Z,5.69
2023-04-12T21:04:49.010Z,5.73
2023-04-12T21:07:16.130Z,5.71
2023-04-12T21:09:42.625Z,5.70
2023-04-12T21:12:09.904Z,5.59
2023-04-12T21:14:37.550Z,5.59
2023-04-12T21:17:05.082Z,5.66
2023-04-12T21:19:31.955Z,5.59
2023-04-12T21:21:59.287Z,5.57
2023-04-12T21:24:26.029Z,5.41
2023-04-12T21:27:00.233Z,5.21
2023-04-12T21:29:26.627Z,5.15
2023-04-12T21:31:53.050Z,5.18
2023-04-12T21:34:22.062Z,5.14
2023-04-12T21:36:48.475Z,5.18
2023-04-12T21:39:15.226Z,5.23
2023-04-12T21:41:41.684Z,5.19
2023-04-12T21:44:08.222Z,5.11
2023-04-12T21:46:34.981Z,5.16
2023-04-12T21:49:01.348Z,5.26
2023-04-12T21:51:28.070Z,5.29
2023-04-12T21:53:54.482Z,5.37
2023-04-12T21:56:21.530Z,5.31
2023-04-12T21:58:47.894Z,5.35
2023-04-12T22:01:15.483Z,5.38
2023-04-12T22:03:44.936Z,5.30
2023-04-12T22:06:14.291Z,5.47
2023-04-12T22:08:43.906Z,5.51
2023-04-12T22:11:11.309Z,5.54
2023-04-12T22:13:46.648Z,5.52
2023-04-12T22:16:13.880Z,5.57
2023-04-12T22:18:41.108Z,5.60
2023-04-12T22:21:08.142Z,5.45
2023-04-12T22:23:38.726Z,5.45
2023-04-12T22:26:10.263Z,5.33
2023-04-12T22:28:38.087Z,5.30
2023-04-12T22:31:05.773Z,5.29
2023-04-12T22:33:32.291Z,5.23
2023-04-12T22:35:58.666Z,5.16
2023-04-12T22:38:25.555Z,5.07
2023-04-12T22:40:52.386Z,5.16
2023-04-12T22:43:20.804Z,5.09
2023-04-12T22:45:47.350Z,5.06
2023-04-12T22:48:17.436Z,5.02
2023-04-12T22:50:47.172Z,4.97
2023-04-12T22:53:13.947Z,4.98
2023-04-12T22:55:41.558Z,5.01
2023-04-12T22:58:08.446Z,4.98
2023-04-12T23:00:35.599Z,5.07
2023-04-12T23:03:02.541Z,4.96
2023-04-12T23:05:29.239Z,4.97
2023-04-12T23:07:55.618Z,4.98
2023-04-12T23:10:22.439Z,4.97
2023-04-12T23:12:52.143Z,5.00
2023-04-12T23:15:19.037Z,5.07
2023-04-12T23:17:45.541Z,5.06
2023-04-12T23:20:15.162Z,5.11
2023-04-12T23:23:07.623Z,5.08
2023-04-12T23:25:41.818Z,5.06
2023-04-12T23:28:13.954Z,5.07
2023-04-12T23:30:48.755Z,5.13
2023-04-12T23:33:18.072Z,5.23
2023-04-12T23:35:46.111Z,5.18
2023-04-12T23:38:15.690Z,5.18
2023-04-12T23:40:43.300Z,5.23
2023-04-12T23:43:09.701Z,5.15
2023-04-12T23:45:37.252Z,5.13
2023-04-12T23:48:07.241Z,5.13
2023-04-12T23:50:33.737Z,5.19
2023-04-12T23:53:00.157Z,5.20
2023-04-12T23:55:26.675Z,5.22
2023-04-12T23:57:53.029Z,5.17
